createdAt,value
2022-09-07T00:01:07.568Z,65.04
2022-09-07T00:03:35.906Z,64.96
2022-09-07T00:06:10.116Z,64.93
2022-09-07T00:08:39.766Z,64.93
2022-09-07T00:11:13.065Z,65.00
2022-09-07T00:13:43.380Z,64.82
2022-09-07T00:16:32.906Z,64.78
2022-09-07T00:19:03.756Z,64.68
2022-09-07T00:21:32.041Z,64.66
2022-09-07T00:23:59.919Z,64.42
2022-09-07T00:26:30.774Z,64.52
2022-09-07T00:29:04.325Z,64.46
2022-09-07T00:31:32.356Z,64.63
2022-09-07T00:34:02.452Z,65.00
2022-09-07T00:36:30.854Z,64.31
2022-09-07T00:38:59.104Z,64.28
2022-09-07T00:41:26.743Z,64.09
2022-09-07T00:43:57.704Z,64.40
2022-09-07T00:46:34.180Z,64.46
2022-09-07T00:49:10.957Z,64.57
2022-09-07T00:51:58.563Z,64.30
2022-09-07T00:54:46.255Z,64.05
2022-09-07T00:57:14.681Z,64.18
2022-09-07T00:59:50.415Z,64.35
2022-09-07T01:02:19.316Z,64.43
2022-09-07T01:04:57.371Z,64.47
2022-09-07T01:07:25.242Z,64.69
2022-09-07T01:09:53.017Z,64.59
2022-09-07T01:12:20.621Z,64.74
2022-09-07T01:14:52.069Z,64.56
2022-09-07T01:17:51.561Z,64.70
2022-09-07T01:20:55.634Z,64.85
2022-09-07T01:23:44.340Z,64.95
2022-09-07T01:26:39.779Z,65.18
2022-09-07T01:29:52.965Z,65.37
2022-09-07T01:32:38.024Z,65.44
2022-09-07T01:35:31.789Z,65.16
2022-09-07T01:38:22.782Z,65.29
2022-09-07T01:41:20.937Z,65.32
2022-09-07T01:44:10.794Z,65.02
2022-09-07T01:47:07.090Z,65.10
2022-09-07T01:49:51.375Z,65.17
2022-09-07T01:52:50.005Z,64.95
2022-09-07T01:55:37.425Z,65.29
2022-09-07T01:58:42.352Z,65.04
2022-09-07T02:01:25.527Z,65.60
2022-09-07T02:04:25.475Z,65.82
2022-09-07T02:07:32.916Z,65.86
2022-09-07T02:10:17.527Z,66.27
2022-09-07T02:12:53.386Z,66.22
2022-09-07T02:16:01.872Z,66.57
2022-09-07T02:18:43.866Z,66.31
2022-09-07T02:21:13.343Z,66.48
2022-09-07T02:24:00.785Z,66.65
2022-09-07T02:26:29.495Z,66.49
2022-09-07T02:28:57.667Z,66.58
2022-09-07T02:31:25.409Z,66.96
2022-09-07T02:33:53.048Z,66.74
2022-09-07T02:36:24.899Z,67.42
2022-09-07T02:38:53.073Z,67.39
2022-09-07T02:41:38.512Z,67.49
2022-09-07T02:44:21.263Z,67.84
2022-09-07T02:46:51.638Z,67.70
2022-09-07T02:49:58.525Z,67.62
2022-09-07T02:52:31.581Z,68.16
2022-09-07T02:55:27.215Z,68.19
2022-09-07T02:58:22.917Z,68.24
2022-09-07T03:01:08.546Z,68.47
2022-09-07T03:04:18.675Z,68.71
2022-09-07T03:07:03.966Z,68.82
2022-09-07T03:09:42.551Z,68.65
2022-09-07T03:12:11.393Z,68.93
2022-09-07T03:14:44.072Z,68.75
2022-09-07T03:17:13.302Z,69.14
2022-09-07T03:19:41.045Z,68.94
2022-09-07T03:22:08.831Z,69.10
2022-09-07T03:24:37.104Z,69.25
2022-09-07T03:27:04.735Z,69.16
2022-09-07T03:29:32.345Z,69.58
2022-09-07T03:32:00.275Z,69.65
2022-09-07T03:34:28.377Z,69.66
2022-09-07T03:36:55.949Z,69.45
2022-09-07T03:39:26.381Z,69.34
2022-09-07T03:41:53.979Z,69.53
2022-09-07T03:44:21.840Z,69.26
2022-09-07T03:46:49.693Z,69.68
2022-09-07T03:49:17.489Z,69.38
2022-09-07T03:54:12.738Z,69.63
2022-09-07T03:56:40.271Z,70.21
2022-09-07T03:59:07.870Z,70.22
2022-09-07T04:01:36.478Z,70.48
2022-09-07T04:04:04.219Z,70.74
2022-09-07T04:06:32.547Z,70.78
2022-09-07T04:09:11.881Z,70.91
2022-09-07T04:11:42.853Z,70.71
2022-09-07T04:14:11.694Z,71.07
2022-09-07T04:16:39.769Z,70.99
2022-09-07T04:19:07.391Z,71.02
2022-09-07T04:21:35.198Z,71.09
2022-09-07T04:24:03.255Z,71.24
2022-09-07T04:26:34.197Z,71.31
2022-09-07T04:29:02.923Z,71.23
2022-09-07T04:31:31.134Z,71.45
2022-09-07T04:33:59.481Z,71.47
2022-09-07T04:36:28.251Z,71.44
2022-09-07T04:39:02.254Z,71.41
2022-09-07T04:41:32.579Z,71.31
2022-09-07T04:44:02.709Z,71.19
2022-09-07T04:46:34.607Z,71.14
2022-09-07T04:49:08.502Z,71.16
2022-09-07T04:51:37.784Z,71.30
2022-09-07T04:54:05.537Z,70.79
2022-09-07T04:56:33.961Z,70.82
2022-09-07T04:59:03.094Z,70.88
2022-09-07T05:01:30.860Z,70.62
2022-09-07T05:04:01.321Z,70.22
2022-09-07T05:06:30.387Z,70.04
2022-09-07T05:08:59.482Z,69.90
2022-09-07T05:11:29.682Z,69.36
2022-09-07T05:14:03.029Z,69.21
2022-09-07T05:16:32.004Z,68.96
2022-09-07T05:19:03.515Z,68.63
2022-09-07T05:21:35.301Z,68.61
2022-09-07T05:24:04.703Z,68.25
2022-09-07T05:26:35.605Z,67.52
2022-09-07T05:31:54.510Z,67.16
2022-09-07T05:34:30.233Z,67.03
2022-09-07T05:36:58.705Z,67.33
2022-09-07T05:39:26.845Z,66.96
2022-09-07T05:41:54.548Z,66.91
2022-09-07T05:47:10.798Z,66.22
2022-09-07T05:49:38.627Z,65.89
2022-09-07T05:52:07.512Z,65.70
2022-09-07T05:54:35.141Z,65.58
2022-09-07T05:57:03.742Z,65.64
2022-09-07T05:59:31.650Z,65.50
2022-09-07T06:02:00.055Z,65.59
2022-09-07T06:04:28.047Z,65.28
2022-09-07T06:12:31.086Z,65.18
2022-09-07T06:15:01.086Z,65.04
2022-09-07T06:17:30.072Z,64.74
2022-09-07T06:19:57.862Z,64.51
2022-09-07T06:22:30.120Z,64.65
2022-09-07T06:24:58.977Z,64.06
2022-09-07T06:27:27.035Z,63.73
2022-09-07T06:29:55.584Z,63.82
2022-09-07T06:35:12.367Z,63.79
2022-09-07T06:37:40.558Z,63.68
2022-09-07T06:40:10.638Z,63.42
2022-09-07T06:42:39.114Z,63.24
2022-09-07T06:45:11.533Z,63.09
2022-09-07T06:47:40.884Z,62.62
2022-09-07T06:50:09.621Z,62.44
2022-09-07T06:55:27.968Z,62.43
2022-09-07T06:57:55.531Z,62.43
2022-09-07T07:00:23.025Z,62.58
2022-09-07T07:02:50.943Z,62.68
2022-09-07T07:05:18.574Z,63.07
2022-09-07T07:07:46.172Z,63.14
2022-09-07T07:10:14.090Z,63.07
2022-09-07T07:15:09.166Z,62.24
2022-09-07T07:17:36.911Z,61.93
2022-09-07T07:20:05.097Z,61.03
2022-09-07T07:22:48.419Z,61.23
2022-09-07T07:25:16.538Z,60.46
2022-09-07T07:27:48.257Z,59.99
2022-09-07T07:30:17.793Z,59.63
2022-09-07T07:32:46.903Z,59.29
2022-09-07T07:35:15.186Z,59.28
2022-09-07T07:37:42.699Z,59.44
2022-09-07T07:42:46.130Z,58.89
2022-09-07T07:48:02.813Z,58.50
2022-09-07T07:50:34.002Z,58.64
2022-09-07T07:55:53.282Z,57.49
2022-09-07T07:58:21.330Z,57.38
2022-09-07T08:00:56.970Z,57.66
2022-09-07T08:03:26.362Z,57.40
2022-09-07T08:05:54.992Z,57.87
2022-09-07T08:08:24.510Z,57.59
2022-09-07T08:10:53.023Z,57.47
2022-09-07T08:13:21.538Z,57.55
2022-09-07T08:15:49.443Z,57.77
2022-09-07T08:18:18.139Z,57.90
2022-09-07T08:20:45.754Z,57.16
2022-09-07T08:23:13.282Z,57.40
2022-09-07T08:25:51.129Z,57.64
2022-09-07T08:28:20.265Z,56.56
2022-09-07T08:30:48.369Z,56.08
2022-09-07T08:33:16.125Z,55.52
2022-09-07T08:35:43.711Z,55.63
2022-09-07T08:38:11.492Z,55.53
2022-09-07T08:40:39.352Z,55.77
2022-09-07T08:43:49.343Z,55.80
2022-09-07T08:47:00.643Z,56.10
2022-09-07T08:49:35.456Z,55.88
2022-09-07T08:52:21.701Z,55.57
2022-09-07T08:55:10.563Z,55.98
2022-09-07T08:57:50.742Z,55.38
2022-09-07T09:00:19.181Z,55.42
2022-09-07T09:05:56.798Z,55.86
2022-09-07T09:06:11.731Z,55.50
2022-09-07T09:08:49.217Z,56.08
2022-09-07T09:12:01.632Z,55.77
2022-09-07T09:14:53.907Z,55.46
2022-09-07T09:17:59.649Z,55.74
2022-09-07T09:20:41.075Z,55.97
2022-09-07T09:23:15.589Z,56.51
2022-09-07T09:25:59.982Z,56.05
2022-09-07T09:28:30.267Z,55.61
2022-09-07T09:31:00.295Z,55.58
2022-09-07T09:33:29.217Z,56.15
2022-09-07T09:36:00.872Z,55.88
2022-09-07T09:38:32.101Z,56.18
2022-09-07T09:41:09.483Z,55.97
2022-09-07T09:43:57.166Z,56.29
2022-09-07T09:46:37.886Z,56.07
2022-09-07T09:49:20.171Z,56.49
2022-09-07T09:54:49.845Z,56.16
2022-09-07T09:57:38.886Z,55.03
2022-09-07T10:00:29.835Z,54.73
2022-09-07T10:05:54.802Z,55.33
2022-09-07T10:08:32.894Z,54.35
2022-09-07T10:11:09.200Z,54.70
2022-09-07T10:13:56.257Z,54.94
2022-09-07T10:16:41.260Z,55.14
2022-09-07T10:19:40.176Z,54.16
2022-09-07T10:22:34.515Z,53.62
2022-09-07T10:25:05.715Z,53.79
2022-09-07T10:27:40.772Z,54.37
2022-09-07T10:30:16.995Z,55.13
2022-09-07T10:33:27.920Z,54.58
2022-09-07T10:36:20.294Z,54.24
2022-09-07T10:39:07.077Z,53.48
2022-09-07T10:41:44.807Z,53.60
2022-09-07T10:45:02.900Z,54.69
2022-09-07T10:48:33.816Z,54.27
2022-09-07T10:51:14.092Z,53.80
2022-09-07T10:54:31.671Z,54.72
2022-09-07T10:57:36.068Z,54.19
2022-09-07T11:00:11.803Z,54.51
2022-09-07T11:02:42.582Z,53.42
2022-09-07T11:05:36.052Z,53.87
2022-09-07T11:09:17.701Z,53.75
2022-09-07T11:12:30.434Z,51.42
2022-09-07T11:15:06.526Z,51.48
2022-09-07T11:17:53.305Z,48.65
2022-09-07T11:20:44.245Z,49.69
2022-09-07T11:23:54.766Z,49.85
2022-09-07T11:26:25.462Z,50.19
2022-09-07T11:32:02.754Z,51.38
2022-09-07T11:34:45.154Z,50.04
2022-09-07T11:37:39.238Z,50.14
2022-09-07T11:40:30.482Z,49.79
2022-09-07T11:43:30.503Z,49.40
2022-09-07T11:46:19.624Z,48.17
2022-09-07T11:48:53.087Z,48.17
2022-09-07T11:51:36.801Z,48.73
2022-09-07T11:54:41.363Z,48.99
2022-09-07T11:57:15.058Z,49.66
2022-09-07T12:00:22.806Z,50.63
2022-09-07T12:03:12.239Z,50.64
2022-09-07T12:06:25.641Z,48.42
2022-09-07T12:09:41.906Z,48.16
2022-09-07T12:12:18.711Z,48.98
2022-09-07T12:15:32.524Z,47.91
2022-09-07T12:18:54.314Z,47.41
2022-09-07T12:21:55.277Z,45.35
2022-09-07T12:24:40.856Z,45.42
2022-09-07T12:27:21.262Z,44.60
2022-09-07T12:29:57.942Z,45.56
2022-09-07T12:32:57.642Z,43.73
2022-09-07T12:35:31.821Z,43.45
2022-09-07T12:38:18.301Z,42.71
2022-09-07T12:41:25.255Z,41.42
2022-09-07T12:44:07.302Z,43.10
2022-09-07T12:46:35.552Z,41.81
2022-09-07T12:49:15.161Z,42.66
2022-09-07T12:52:15.194Z,42.25
2022-09-07T12:55:29.866Z,39.76
2022-09-07T12:58:34.503Z,39.61
2022-09-07T13:01:45.404Z,39.88
2022-09-07T13:04:34.846Z,39.91
2022-09-07T13:07:27.953Z,37.47
2022-09-07T13:10:03.167Z,36.50
2022-09-07T13:12:57.203Z,37.25
2022-09-07T13:15:48.620Z,37.80
2022-09-07T13:18:28.748Z,38.00
2022-09-07T13:21:07.174Z,37.65
2022-09-07T13:23:45.440Z,37.80
2022-09-07T13:26:54.818Z,37.72
2022-09-07T13:29:55.217Z,37.42
2022-09-07T13:35:29.477Z,35.92
2022-09-07T13:38:03.926Z,35.88
2022-09-07T13:40:38.105Z,35.99
2022-09-07T13:43:12.657Z,35.76
2022-09-07T13:45:55.311Z,34.57
2022-09-07T13:48:42.136Z,34.05
2022-09-07T13:51:35.522Z,34.18
2022-09-07T13:54:37.502Z,33.98
2022-09-07T13:57:32.130Z,34.34
2022-09-07T14:00:00.188Z,33.58
2022-09-07T14:02:36.024Z,32.85
2022-09-07T14:05:05.134Z,32.52
2022-09-07T14:07:32.965Z,31.43
2022-09-07T14:10:20.825Z,31.77
2022-09-07T14:13:08.276Z,32.02
2022-09-07T14:15:48.498Z,31.66
2022-09-07T14:18:32.211Z,31.85
2022-09-07T14:21:00.121Z,31.44
2022-09-07T14:23:32.469Z,30.88
2022-09-07T14:26:23.191Z,30.48
2022-09-07T14:28:55.599Z,30.27
2022-09-07T14:31:25.283Z,30.37
2022-09-07T14:33:58.588Z,30.97
2022-09-07T14:36:45.823Z,30.81
2022-09-07T14:39:17.250Z,30.69
2022-09-07T14:41:45.924Z,30.43
2022-09-07T14:44:40.482Z,30.26
2022-09-07T14:47:35.788Z,30.46
2022-09-07T14:50:05.999Z,30.84
2022-09-07T14:52:43.718Z,30.70
2022-09-07T14:55:41.984Z,29.72
2022-09-07T14:58:15.817Z,30.40
2022-09-07T15:00:45.982Z,29.64
2022-09-07T15:03:33.287Z,29.67
2022-09-07T15:06:03.417Z,29.28
2022-09-07T15:08:49.838Z,29.42
2022-09-07T15:11:35.654Z,29.59
2022-09-07T15:14:19.243Z,29.23
2022-09-07T15:19:50.819Z,29.41
2022-09-07T15:22:19.039Z,29.17
2022-09-07T15:24:50.415Z,29.67
2022-09-07T15:27:28.833Z,29.26
2022-09-07T15:29:56.586Z,29.39
2022-09-07T15:32:24.145Z,28.88
2022-09-07T15:34:52.022Z,29.05
2022-09-07T15:40:21.938Z,29.90
2022-09-07T15:43:19.485Z,29.10
2022-09-07T15:45:39.798Z,29.51
2022-09-07T15:48:07.645Z,29.52
2022-09-07T15:50:35.161Z,29.75
2022-09-07T15:53:02.829Z,29.86
2022-09-07T15:55:32.683Z,29.98
2022-09-07T15:58:11.490Z,29.78
2022-09-07T16:00:41.362Z,29.87
2022-09-07T16:03:10.009Z,29.98
2022-09-07T16:05:44.113Z,30.23
2022-09-07T16:08:32.846Z,30.68
2022-09-07T16:11:17.919Z,30.48
2022-09-07T16:13:48.123Z,30.73
2022-09-07T16:16:16.394Z,29.96
2022-09-07T16:18:46.881Z,29.07
2022-09-07T16:21:16.264Z,28.52
2022-09-07T16:23:50.235Z,29.01
2022-09-07T16:26:23.334Z,28.44
2022-09-07T16:28:53.493Z,29.27
2022-09-07T16:31:26.594Z,29.02
2022-09-07T16:33:54.870Z,29.36
2022-09-07T16:36:23.723Z,29.53
2022-09-07T16:39:00.287Z,29.63
2022-09-07T16:41:31.835Z,30.33
2022-09-07T16:43:59.453Z,31.51
2022-09-07T16:46:30.712Z,32.80
2022-09-07T16:48:58.472Z,33.97
2022-09-07T16:51:26.111Z,35.07
2022-09-07T16:53:56.152Z,36.98
2022-09-07T16:56:27.141Z,37.97
2022-09-07T16:59:03.881Z,38.85
2022-09-07T17:01:38.105Z,40.40
2022-09-07T17:04:10.706Z,41.27
2022-09-07T17:06:40.230Z,42.60
2022-09-07T17:09:08.642Z,43.61
2022-09-07T17:11:37.243Z,44.57
2022-09-07T17:14:06.580Z,45.12
2022-09-07T17:16:40.401Z,45.37
2022-09-07T17:22:00.320Z,46.77
2022-09-07T17:24:29.625Z,47.54
2022-09-07T17:27:00.162Z,48.28
2022-09-07T17:29:30.484Z,48.51
2022-09-07T17:34:46.801Z,49.73
2022-09-07T17:37:14.593Z,50.00
2022-09-07T17:39:42.136Z,50.73
2022-09-07T17:42:10.031Z,50.99
2022-09-07T17:44:38.447Z,51.51
2022-09-07T17:47:06.622Z,51.64
2022-09-07T17:49:34.368Z,51.96
2022-09-07T17:52:02.956Z,52.48
2022-09-07T17:54:30.613Z,52.63
2022-09-07T17:56:58.541Z,52.36
2022-09-07T18:02:14.493Z,52.24
2022-09-07T18:04:42.963Z,52.32
2022-09-07T18:07:10.789Z,52.14
2022-09-07T18:09:38.371Z,51.77
2022-09-07T18:12:06.488Z,51.65
2022-09-07T18:14:34.025Z,51.47
2022-09-07T18:17:01.596Z,51.56
2022-09-07T18:19:29.447Z,51.45
2022-09-07T18:21:57.340Z,50.80
2022-09-07T18:24:25.310Z,51.24
2022-09-07T18:26:54.043Z,49.41
2022-09-07T18:29:29.858Z,49.70
2022-09-07T18:32:08.004Z,53.13
2022-09-07T18:34:40.612Z,51.95
2022-09-07T18:37:12.221Z,53.92
2022-09-07T18:39:40.891Z,53.27
2022-09-07T18:42:09.589Z,51.46
2022-09-07T18:47:28.919Z,51.83
2022-09-07T18:49:57.806Z,54.16
2022-09-07T18:55:15.479Z,54.21
2022-09-07T18:57:43.220Z,55.80
2022-09-07T19:00:13.106Z,55.60
2022-09-07T19:02:41.175Z,53.00
2022-09-07T19:07:57.258Z,52.09
2022-09-07T19:10:24.807Z,52.24
2022-09-07T19:12:52.346Z,53.34
2022-09-07T19:15:20.571Z,54.24
2022-09-07T19:17:48.222Z,56.03
2022-09-07T19:20:15.869Z,56.80
2022-09-07T19:22:43.723Z,58.31
2022-09-07T19:25:11.524Z,59.49
2022-09-07T19:27:39.313Z,59.43
2022-09-07T19:30:08.232Z,59.77
2022-09-07T19:32:35.874Z,59.70
2022-09-07T19:35:03.644Z,59.79
2022-09-07T19:37:32.809Z,59.58
2022-09-07T19:40:01.350Z,59.55
2022-09-07T19:42:29.616Z,59.88
2022-09-07T19:44:57.381Z,59.54
2022-09-07T19:47:24.988Z,60.18
2022-09-07T19:49:52.420Z,59.51
2022-09-07T19:52:22.762Z,59.97
2022-09-07T19:54:50.393Z,59.96
2022-09-07T19:57:18.059Z,59.57
2022-09-07T19:59:47.269Z,59.87
2022-09-07T20:02:14.741Z,59.46
2022-09-07T20:04:42.284Z,59.74
2022-09-07T20:07:10.051Z,60.34
2022-09-07T20:09:37.580Z,59.96
2022-09-07T20:12:07.460Z,60.50
2022-09-07T20:14:35.344Z,60.10
2022-09-07T20:17:02.915Z,59.30
2022-09-07T20:19:30.545Z,59.18
2022-09-07T20:21:58.359Z,59.59
2022-09-07T20:24:25.904Z,58.34
2022-09-07T20:26:53.536Z,58.93
2022-09-07T20:29:27.753Z,59.43
2022-09-07T20:32:00.631Z,59.72
2022-09-07T20:34:29.262Z,59.48
2022-09-07T20:36:57.296Z,61.97
2022-09-07T20:39:25.226Z,62.46
2022-09-07T20:41:54.037Z,63.17
2022-09-07T20:44:21.481Z,63.11
2022-09-07T20:46:49.040Z,63.28
2022-09-07T20:49:16.896Z,62.89
2022-09-07T20:51:44.657Z,62.78
2022-09-07T20:54:12.584Z,62.75
2022-09-07T20:56:40.394Z,62.81
2022-09-07T20:59:08.148Z,62.92
2022-09-07T21:01:36.653Z,62.52
2022-09-07T21:04:06.170Z,62.64
2022-09-07T21:06:33.929Z,62.09
2022-09-07T21:09:01.948Z,61.88
2022-09-07T21:11:36.073Z,61.50
2022-09-07T21:14:11.526Z,61.51
2022-09-07T21:16:39.866Z,61.34
2022-09-07T21:19:11.058Z,60.91
2022-09-07T21:21:41.973Z,60.88
2022-09-07T21:24:22.532Z,61.09
2022-09-07T21:26:51.501Z,60.99
2022-09-07T21:29:23.805Z,61.20
2022-09-07T21:31:54.576Z,60.57
2022-09-07T21:34:23.281Z,61.59
2022-09-07T21:36:51.250Z,61.39
2022-09-07T21:39:19.403Z,61.63
2022-09-07T21:41:47.459Z,61.32
2022-09-07T21:44:16.267Z,61.13
2022-09-07T21:46:45.283Z,61.58
2022-09-07T21:49:13.388Z,61.92
2022-09-07T21:51:40.946Z,61.59
2022-09-07T21:54:08.621Z,61.83
2022-09-07T21:56:36.526Z,61.91
2022-09-07T21:59:05.189Z,61.37
2022-09-07T22:01:32.920Z,61.38
2022-09-07T22:04:07.035Z,61.84
2022-09-07T22:06:35.556Z,61.14
2022-09-07T22:09:05.166Z,62.02
2022-09-07T22:11:33.437Z,61.34
2022-09-07T22:14:04.287Z,61.56
2022-09-07T22:16:35.674Z,61.26
2022-09-07T22:19:03.988Z,61.18
2022-09-07T22:21:32.460Z,61.20
2022-09-07T22:24:04.300Z,61.97
2022-09-07T22:26:37.802Z,61.64
2022-09-07T22:29:08.711Z,61.65
2022-09-07T22:31:38.776Z,61.23
2022-09-07T22:34:09.433Z,62.20
2022-09-07T22:36:40.974Z,61.22
2022-09-07T22:39:13.751Z,61.37
2022-09-07T22:41:42.562Z,61.22
2022-09-07T22:44:14.964Z,61.61
2022-09-07T22:46:45.966Z,61.72
2022-09-07T22:49:16.404Z,62.36
2022-09-07T22:51:44.662Z,61.71
2022-09-07T22:54:12.218Z,62.03
2022-09-07T22:56:40.426Z,61.71
2022-09-07T22:59:10.457Z,61.59
2022-09-07T23:01:38.737Z,62.51
2022-09-07T23:04:07.389Z,61.45
2022-09-07T23:06:41.564Z,61.81
2022-09-07T23:09:16.548Z,61.52
2022-09-07T23:11:46.071Z,61.34
2022-09-07T23:14:18.579Z,61.88
2022-09-07T23:16:46.905Z,61.12
2022-09-07T23:19:18.023Z,61.28
2022-09-07T23:21:46.103Z,60.79
2022-09-07T23:24:17.203Z,61.20
2022-09-07T23:26:46.673Z,61.64
2022-09-07T23:29:15.646Z,61.38
2022-09-07T23:31:45.186Z,61.27
2022-09-07T23:34:12.995Z,61.59
2022-09-07T23:36:40.409Z,61.75
2022-09-07T23:39:07.848Z,61.55
2022-09-07T23:41:35.501Z,61.43
2022-09-07T23:44:03.286Z,61.96
2022-09-07T23:46:30.790Z,61.08
2022-09-07T23:48:58.565Z,62.09
2022-09-07T23:51:26.081Z,61.96
2022-09-07T23:53:53.580Z,61.60
2022-09-07T23:56:24.440Z,61.47
2022-09-07T23:58:52.231Z,61.38
